createdAt,value
2019-04-30T00:00:47.200Z,32.10
2019-04-30T00:03:29.537Z,29.93
2019-04-30T00:06:12.569Z,30.43
2019-04-30T00:08:45.140Z,34.63
2019-04-30T00:11:19.499Z,34.37
2019-04-30T00:13:55.407Z,33.50
2019-04-30T00:16:25.292Z,38.63
2019-04-30T00:19:00.463Z,33.03
2019-04-30T00:21:31.276Z,34.97
2019-04-30T00:24:06.244Z,37.27
2019-04-30T00:26:39.816Z,33.87
2019-04-30T00:29:09.780Z,35.70
2019-04-30T00:31:41.616Z,34.80
2019-04-30T00:34:21.853Z,32.77
2019-04-30T00:36:53.234Z,33.83
2019-04-30T00:39:27.363Z,34.07
2019-04-30T00:42:00.876Z,34.03
2019-04-30T00:44:35.658Z,35.30
2019-04-30T00:47:08.443Z,37.13
2019-04-30T00:49:40.824Z,35.00
2019-04-30T00:52:11.331Z,32.67
2019-04-30T00:54:42.461Z,32.63
2019-04-30T00:57:15.284Z,31.63
2019-04-30T00:59:48.052Z,33.67
2019-04-30T01:02:31.675Z,37.57
2019-04-30T01:05:05.455Z,36.20
2019-04-30T01:07:33.052Z,37.67
2019-04-30T01:10:06.911Z,39.97
2019-04-30T01:12:46.520Z,38.87
2019-04-30T01:15:15.740Z,39.17
2019-04-30T01:17:51.094Z,37.33
2019-04-30T01:20:24.191Z,38.90
2019-04-30T01:22:58.571Z,38.63
2019-04-30T01:25:30.262Z,37.47
2019-04-30T01:28:01.778Z,39.50
2019-04-30T01:30:32.282Z,39.27
2019-04-30T01:33:03.914Z,38.03
2019-04-30T01:35:35.293Z,43.57
2019-04-30T01:38:11.178Z,41.53
2019-04-30T01:40:42.852Z,39.67
2019-04-30T01:43:23.530Z,42.30
2019-04-30T01:45:53.072Z,44.07
2019-04-30T01:48:26.801Z,37.97
2019-04-30T01:51:01.159Z,37.83
2019-04-30T01:53:30.895Z,41.40
2019-04-30T01:56:24.575Z,42.20
2019-04-30T01:58:59.544Z,38.90
2019-04-30T02:01:31.532Z,40.90
2019-04-30T02:04:03.347Z,45.10
2019-04-30T02:06:34.385Z,40.00
2019-04-30T02:09:06.441Z,39.90
2019-04-30T02:11:38.821Z,42.83
2019-04-30T02:14:11.887Z,43.23
2019-04-30T02:16:43.319Z,42.50
2019-04-30T02:19:14.277Z,45.43
2019-04-30T02:21:48.235Z,44.23
2019-04-30T02:24:21.008Z,42.93
2019-04-30T02:26:53.917Z,48.87
2019-04-30T02:29:26.197Z,45.73
2019-04-30T02:32:00.994Z,43.37
2019-04-30T02:34:42.205Z,50.67
2019-04-30T02:37:25.661Z,43.93
2019-04-30T02:40:00.931Z,46.33
2019-04-30T02:42:39.705Z,49.13
2019-04-30T02:45:13.412Z,50.63
2019-04-30T02:47:49.896Z,51.20
2019-04-30T02:50:22.520Z,53.60
2019-04-30T02:52:55.533Z,54.77
2019-04-30T02:55:45.603Z,56.13
2019-04-30T02:58:21.022Z,55.27
2019-04-30T03:00:53.593Z,62.63
2019-04-30T03:03:29.954Z,58.73
2019-04-30T03:06:03.454Z,63.30
2019-04-30T03:08:34.997Z,63.50
2019-04-30T03:11:06.504Z,63.37
2019-04-30T03:13:42.879Z,61.07
2019-04-30T03:16:15.852Z,62.10
2019-04-30T03:19:21.532Z,66.20
2019-04-30T03:22:00.194Z,65.93
2019-04-30T03:24:31.675Z,66.53
2019-04-30T03:27:05.003Z,64.50
2019-04-30T03:29:40.167Z,64.90
2019-04-30T03:32:13.738Z,69.90
2019-04-30T03:34:45.997Z,68.20
2019-04-30T03:37:19.889Z,70.93
2019-04-30T03:39:52.138Z,69.73
2019-04-30T03:42:24.512Z,69.70
2019-04-30T03:44:56.345Z,69.57
2019-04-30T03:47:29.939Z,72.43
2019-04-30T03:50:00.434Z,72.17
2019-04-30T03:52:31.503Z,67.43
2019-04-30T03:55:03.396Z,69.37
2019-04-30T03:57:34.634Z,71.07
2019-04-30T04:00:09.318Z,67.13
2019-04-30T04:02:46.896Z,70.70
2019-04-30T04:05:36.764Z,65.53
2019-04-30T04:08:23.246Z,65.77
2019-04-30T04:11:00.539Z,68.13
2019-04-30T04:13:33.156Z,74.23
2019-04-30T04:16:05.872Z,68.70
2019-04-30T04:18:36.916Z,67.37
2019-04-30T04:21:16.299Z,69.07
2019-04-30T04:23:43.303Z,68.83
2019-04-30T04:26:20.074Z,68.13
2019-04-30T04:28:52.647Z,69.83
2019-04-30T04:31:24.736Z,71.53
2019-04-30T04:34:03.066Z,67.20
2019-04-30T04:36:39.957Z,72.83
2019-04-30T04:39:23.815Z,74.03
2019-04-30T04:41:59.927Z,76.50
2019-04-30T04:44:34.832Z,72.77
2019-04-30T04:47:06.534Z,72.17
2019-04-30T04:49:39.770Z,67.60
2019-04-30T04:52:14.912Z,70.43
2019-04-30T04:54:46.251Z,70.20
2019-04-30T04:57:19.319Z,67.23
2019-04-30T04:59:53.842Z,69.07
2019-04-30T05:02:32.870Z,74.13
2019-04-30T05:05:04.819Z,68.43
2019-04-30T05:07:39.653Z,72.70
2019-04-30T05:10:14.148Z,74.00
2019-04-30T05:12:45.632Z,67.23
2019-04-30T05:15:17.163Z,70.77
2019-04-30T05:17:49.748Z,69.13
2019-04-30T05:20:21.174Z,69.57
2019-04-30T05:22:53.436Z,66.80
2019-04-30T05:25:24.898Z,67.60
2019-04-30T05:28:01.712Z,67.30
2019-04-30T05:30:33.099Z,70.60
2019-04-30T05:33:06.632Z,61.13
2019-04-30T05:35:56.078Z,64.27
2019-04-30T05:38:32.437Z,63.90
2019-04-30T05:41:06.587Z,59.00
2019-04-30T05:43:42.282Z,63.47
2019-04-30T05:46:29.980Z,62.73
2019-04-30T05:49:14.455Z,60.87
2019-04-30T05:51:53.587Z,62.37
2019-04-30T05:54:21.872Z,60.43
2019-04-30T05:56:57.056Z,60.30
2019-04-30T05:59:29.473Z,58.63
2019-04-30T06:02:02.390Z,58.70
2019-04-30T06:07:12.232Z,60.40
2019-04-30T06:09:52.927Z,61.20
2019-04-30T06:13:03.117Z,60.60
2019-04-30T06:15:49.110Z,57.57
2019-04-30T06:18:22.254Z,60.50
2019-04-30T06:20:55.131Z,62.67
2019-04-30T06:23:26.771Z,59.87
2019-04-30T06:26:06.827Z,65.93
2019-04-30T06:28:32.654Z,59.33
2019-04-30T06:31:04.666Z,61.50
2019-04-30T06:33:38.859Z,58.47
2019-04-30T06:36:11.701Z,60.07
2019-04-30T06:38:42.760Z,59.67
2019-04-30T06:41:13.392Z,58.93
2019-04-30T06:43:48.797Z,58.77
2019-04-30T06:46:20.549Z,60.50
2019-04-30T06:48:51.690Z,63.87
2019-04-30T06:51:23.441Z,66.07
2019-04-30T06:53:56.410Z,60.43
2019-04-30T06:56:28.929Z,62.70
2019-04-30T06:59:02.191Z,60.07
2019-04-30T07:01:33.732Z,65.47
2019-04-30T07:04:06.604Z,64.30
2019-04-30T07:06:45.096Z,66.00
2019-04-30T07:09:58.060Z,66.13
2019-04-30T07:12:31.480Z,64.97
2019-04-30T07:15:04.107Z,59.00
2019-04-30T07:17:59.115Z,61.27
2019-04-30T07:20:34.013Z,61.40
2019-04-30T07:23:05.971Z,59.93
2019-04-30T07:25:51.724Z,54.87
2019-04-30T07:28:42.720Z,52.80
2019-04-30T07:31:13.336Z,57.67
2019-04-30T07:33:39.672Z,58.07
2019-04-30T07:36:11.326Z,53.60
2019-04-30T07:38:54.194Z,54.27
2019-04-30T07:41:23.371Z,53.07
2019-04-30T07:43:55.027Z,47.13
2019-04-30T07:46:35.098Z,45.00
2019-04-30T07:49:04.892Z,44.00
2019-04-30T07:51:41.369Z,41.17
2019-04-30T07:54:12.326Z,37.70
2019-04-30T07:56:50.662Z,36.47
2019-04-30T07:59:22.674Z,40.33
2019-04-30T08:02:06.308Z,35.43
2019-04-30T08:04:51.434Z,36.73
2019-04-30T08:07:21.812Z,37.87
2019-04-30T08:09:55.811Z,41.20
2019-04-30T08:12:31.827Z,41.47
2019-04-30T08:14:59.648Z,34.20
2019-04-30T08:17:35.979Z,42.23
2019-04-30T08:20:12.562Z,41.87
2019-04-30T08:22:50.381Z,50.73
2019-04-30T08:25:25.771Z,41.10
2019-04-30T08:28:03.003Z,42.30
2019-04-30T08:30:39.146Z,40.47
2019-04-30T08:33:19.224Z,36.10
2019-04-30T08:35:53.371Z,35.50
2019-04-30T08:38:30.359Z,43.60
2019-04-30T08:41:06.434Z,38.90
2019-04-30T08:43:45.749Z,34.93
2019-04-30T08:46:20.289Z,37.17
2019-04-30T08:48:54.497Z,37.60
2019-04-30T08:51:30.345Z,37.93
2019-04-30T08:54:01.569Z,37.33
2019-04-30T08:56:34.400Z,38.53
2019-04-30T08:59:08.729Z,34.17
2019-04-30T09:01:55.788Z,33.00
2019-04-30T09:04:30.204Z,33.73
2019-04-30T09:07:01.922Z,35.60
2019-04-30T09:09:35.297Z,34.37
2019-04-30T09:12:11.346Z,32.93
2019-04-30T09:14:49.408Z,30.43
2019-04-30T09:17:25.081Z,35.47
2019-04-30T09:20:15.086Z,30.97
2019-04-30T09:22:47.304Z,30.47
2019-04-30T09:25:19.487Z,32.60
2019-04-30T09:28:01.155Z,31.60
2019-04-30T09:30:34.347Z,35.20
2019-04-30T09:33:07.098Z,31.67
2019-04-30T09:35:46.492Z,32.10
2019-04-30T09:38:19.508Z,30.57
2019-04-30T09:40:54.922Z,34.73
2019-04-30T09:43:29.188Z,34.00
2019-04-30T09:46:15.238Z,38.73
2019-04-30T09:48:41.179Z,31.97
2019-04-30T09:51:12.817Z,58.20
2019-04-30T09:53:59.202Z,35.47
2019-04-30T09:56:29.453Z,31.67
2019-04-30T09:59:02.473Z,33.23
2019-04-30T10:01:35.455Z,31.57
2019-04-30T10:04:10.205Z,32.20
2019-04-30T10:06:46.083Z,35.93
2019-04-30T10:09:20.429Z,36.70
2019-04-30T10:12:14.119Z,33.87
2019-04-30T10:14:51.128Z,33.83
2019-04-30T10:17:30.971Z,31.97
2019-04-30T10:20:04.762Z,33.27
2019-04-30T10:22:39.936Z,29.70
2019-04-30T10:25:10.409Z,29.87
2019-04-30T10:27:42.345Z,31.00
2019-04-30T10:30:16.927Z,31.97
2019-04-30T10:32:50.080Z,31.90
2019-04-30T10:35:23.048Z,30.97
2019-04-30T10:37:55.021Z,32.07
2019-04-30T10:40:28.721Z,34.47
2019-04-30T10:43:03.563Z,29.00
2019-04-30T10:45:38.658Z,29.43
2019-04-30T10:48:09.678Z,31.03
2019-04-30T10:50:43.937Z,29.07
2019-04-30T10:53:14.887Z,33.13
2019-04-30T10:55:50.267Z,31.30
2019-04-30T10:58:23.372Z,31.40
2019-04-30T11:01:01.934Z,27.53
2019-04-30T11:03:33.608Z,26.50
2019-04-30T11:06:08.679Z,33.73
2019-04-30T11:08:39.485Z,24.18
2019-04-30T11:11:11.711Z,26.33
2019-04-30T11:13:44.597Z,33.60
2019-04-30T11:16:18.764Z,28.60
2019-04-30T11:18:49.563Z,28.33
2019-04-30T11:21:20.565Z,23.70
2019-04-30T11:23:52.390Z,25.20
2019-04-30T11:26:25.583Z,25.87
2019-04-30T11:29:02.227Z,26.40
2019-04-30T11:31:46.294Z,27.43
2019-04-30T11:34:19.364Z,23.57
2019-04-30T11:36:50.565Z,28.42
2019-04-30T11:39:32.061Z,28.60
2019-04-30T11:42:17.613Z,25.40
2019-04-30T11:44:50.140Z,22.37
2019-04-30T11:47:34.685Z,25.37
2019-04-30T11:50:19.170Z,37.73
2019-04-30T11:53:07.043Z,24.32
2019-04-30T11:55:32.400Z,24.40
2019-04-30T11:58:07.145Z,25.17
2019-04-30T12:00:51.648Z,27.13
2019-04-30T12:03:32.013Z,22.90
2019-04-30T12:06:28.544Z,22.87
2019-04-30T12:09:22.113Z,23.02
2019-04-30T12:11:53.031Z,28.38
2019-04-30T12:14:29.793Z,24.87
2019-04-30T12:17:08.873Z,23.02
2019-04-30T12:19:42.115Z,24.40
2019-04-30T12:22:13.579Z,18.02
2019-04-30T12:24:46.392Z,19.10
2019-04-30T12:27:18.709Z,16.75
2019-04-30T12:29:49.553Z,20.25
2019-04-30T12:32:21.493Z,19.23
2019-04-30T12:34:53.149Z,21.17
2019-04-30T12:37:23.321Z,17.67
2019-04-30T12:39:56.017Z,16.90
2019-04-30T12:42:28.716Z,18.07
2019-04-30T12:45:00.111Z,18.95
2019-04-30T12:47:34.429Z,14.70
2019-04-30T12:50:21.466Z,19.45
2019-04-30T12:53:10.282Z,17.70
2019-04-30T12:55:51.677Z,26.27
2019-04-30T12:58:25.459Z,21.50
2019-04-30T13:00:59.143Z,19.55
2019-04-30T13:03:31.493Z,19.92
2019-04-30T13:06:03.708Z,17.85
2019-04-30T13:08:37.920Z,20.97
2019-04-30T13:11:12.770Z,18.23
2019-04-30T13:13:44.352Z,17.60
2019-04-30T13:16:19.298Z,19.00
2019-04-30T13:18:51.904Z,16.32
2019-04-30T13:21:23.643Z,18.02
2019-04-30T13:23:57.868Z,18.48
2019-04-30T13:26:30.132Z,18.52
2019-04-30T13:29:05.961Z,15.88
2019-04-30T13:31:37.859Z,16.50
2019-04-30T13:34:29.915Z,16.27
2019-04-30T13:37:01.837Z,13.32
2019-04-30T13:39:49.495Z,16.48
2019-04-30T13:42:21.023Z,15.98
2019-04-30T13:44:51.694Z,13.75
2019-04-30T13:47:24.793Z,15.40
2019-04-30T13:49:56.197Z,15.20
2019-04-30T13:52:28.854Z,14.43
2019-04-30T13:55:10.975Z,15.13
2019-04-30T13:57:41.614Z,16.93
2019-04-30T14:00:20.905Z,16.60
2019-04-30T14:03:00.865Z,14.50
2019-04-30T14:10:44.615Z,15.38
2019-04-30T14:13:21.719Z,18.90
2019-04-30T14:16:38.471Z,14.47
2019-04-30T14:20:42.527Z,15.38
2019-04-30T14:32:33.667Z,15.20
2019-04-30T14:56:46.975Z,10.32
2019-04-30T14:59:42.631Z,12.55
2019-04-30T15:02:37.389Z,13.70
2019-04-30T15:05:14.326Z,15.85
2019-04-30T15:08:22.267Z,13.15
2019-04-30T15:15:45.799Z,14.03
2019-04-30T15:19:32.726Z,12.05
2019-04-30T15:30:04.624Z,14.45
2019-04-30T15:33:31.182Z,16.57
2019-04-30T17:15:41.988Z,41.73
2019-04-30T17:47:46.734Z,38.67
2019-04-30T17:51:05.644Z,41.23
2019-04-30T17:54:02.759Z,38.70
2019-04-30T17:56:33.769Z,39.93
2019-04-30T17:59:06.319Z,42.17
2019-04-30T18:01:40.129Z,43.40
2019-04-30T18:04:13.077Z,40.07
2019-04-30T18:06:46.043Z,40.23
2019-04-30T18:09:22.696Z,40.60
2019-04-30T18:12:02.544Z,38.60
2019-04-30T18:14:39.586Z,40.10
2019-04-30T18:17:15.406Z,42.87
2019-04-30T18:20:19.277Z,40.80
2019-04-30T18:23:26.488Z,41.53
2019-04-30T18:26:01.429Z,36.77
2019-04-30T18:28:32.007Z,38.30
2019-04-30T18:31:03.887Z,46.10
2019-04-30T18:33:34.352Z,42.03
2019-04-30T18:36:06.385Z,45.13
2019-04-30T18:38:39.117Z,40.53
2019-04-30T18:41:11.053Z,38.87
2019-04-30T18:43:41.233Z,42.33
2019-04-30T18:46:11.508Z,40.67
2019-04-30T18:48:42.243Z,45.60
2019-04-30T18:51:30.312Z,45.60
2019-04-30T18:53:50.881Z,44.60
2019-04-30T18:56:22.168Z,41.70
2019-04-30T18:58:52.961Z,42.23
2019-04-30T19:01:26.115Z,44.47
2019-04-30T19:04:01.193Z,42.37
2019-04-30T19:06:32.898Z,41.67
2019-04-30T19:09:29.787Z,44.87
2019-04-30T19:12:29.180Z,44.60
2019-04-30T19:15:19.597Z,44.87
2019-04-30T19:18:09.333Z,43.53
2019-04-30T19:20:46.306Z,44.87
2019-04-30T19:23:19.063Z,44.77
2019-04-30T19:25:50.627Z,43.80
2019-04-30T19:28:24.453Z,47.10
2019-04-30T19:30:58.904Z,44.13
2019-04-30T19:33:31.191Z,42.10
2019-04-30T19:36:03.745Z,43.83
2019-04-30T19:38:36.676Z,42.70
2019-04-30T19:41:11.327Z,45.27
2019-04-30T19:43:43.566Z,45.70
2019-04-30T19:46:14.175Z,42.80
2019-04-30T19:48:44.639Z,43.97
2019-04-30T19:51:16.186Z,42.17
2019-04-30T19:53:48.966Z,42.23
2019-04-30T19:56:21.059Z,41.20
2019-04-30T19:59:01.966Z,46.17
2019-04-30T20:01:25.992Z,45.03
2019-04-30T20:04:04.726Z,46.87
2019-04-30T20:06:38.681Z,45.67
2019-04-30T20:09:09.690Z,42.63
2019-04-30T20:11:42.773Z,42.73
2019-04-30T20:14:15.127Z,43.80
2019-04-30T20:16:49.040Z,45.53
2019-04-30T20:19:21.600Z,43.50
2019-04-30T20:21:54.192Z,46.60
2019-04-30T20:24:26.842Z,45.07
2019-04-30T20:27:07.173Z,44.80
2019-04-30T20:29:32.457Z,46.50
2019-04-30T20:32:05.576Z,42.20
2019-04-30T20:34:39.280Z,43.73
2019-04-30T20:37:12.457Z,44.40
2019-04-30T20:39:53.207Z,50.60
2019-04-30T20:42:23.909Z,44.93
2019-04-30T20:44:55.812Z,47.90
2019-04-30T20:47:30.008Z,49.57
2019-04-30T20:50:03.463Z,50.90
2019-04-30T20:52:39.404Z,43.00
2019-04-30T20:55:17.025Z,45.37
2019-04-30T20:57:50.600Z,48.13
2019-04-30T21:00:22.855Z,50.80
2019-04-30T21:02:59.743Z,53.07
2019-04-30T21:05:30.734Z,49.37
2019-04-30T21:08:01.892Z,48.87
2019-04-30T21:10:35.185Z,48.10
2019-04-30T21:13:10.996Z,51.93
2019-04-30T21:15:54.840Z,48.17
2019-04-30T21:18:25.784Z,46.93
2019-04-30T21:20:59.571Z,47.73
2019-04-30T21:23:33.240Z,50.33
2019-04-30T21:26:06.192Z,49.97
2019-04-30T21:28:39.338Z,48.10
2019-04-30T21:31:37.834Z,49.67
2019-04-30T21:34:19.588Z,49.37
2019-04-30T21:36:51.123Z,50.50
2019-04-30T21:39:24.701Z,49.30
2019-04-30T21:41:59.445Z,51.20
2019-04-30T21:44:30.120Z,49.20
2019-04-30T21:47:01.162Z,47.43
2019-04-30T21:49:33.649Z,53.13
2019-04-30T21:52:06.180Z,54.17
2019-04-30T21:54:38.825Z,51.47
2019-04-30T21:57:09.837Z,48.37
2019-04-30T21:59:41.356Z,49.33
2019-04-30T22:02:12.669Z,46.40
2019-04-30T22:04:47.396Z,47.23
2019-04-30T22:07:21.062Z,49.97
2019-04-30T22:09:54.417Z,48.13
2019-04-30T22:12:28.441Z,43.87
2019-04-30T22:15:01.274Z,45.27
2019-04-30T22:17:34.919Z,48.93
2019-04-30T22:20:09.603Z,47.50
2019-04-30T22:22:43.225Z,49.40
2019-04-30T22:25:14.803Z,53.17
2019-04-30T22:27:45.410Z,48.30
2019-04-30T22:30:17.141Z,47.17
2019-04-30T22:32:48.362Z,48.53
2019-04-30T22:35:50.362Z,49.67
2019-04-30T22:38:25.814Z,49.73
2019-04-30T22:40:58.872Z,51.37
2019-04-30T22:43:31.035Z,49.33
2019-04-30T22:46:09.774Z,49.77
2019-04-30T22:48:42.484Z,47.00
2019-04-30T22:51:15.798Z,47.53
2019-04-30T22:53:50.493Z,50.13
2019-04-30T22:56:23.949Z,50.87
2019-04-30T22:58:55.826Z,48.07
2019-04-30T23:01:52.060Z,47.47
2019-04-30T23:04:36.789Z,48.60
2019-04-30T23:07:09.384Z,49.40
2019-04-30T23:09:41.796Z,50.97
2019-04-30T23:12:17.464Z,51.40
2019-04-30T23:14:49.278Z,51.43
2019-04-30T23:17:21.144Z,46.50
2019-04-30T23:19:51.392Z,48.13
2019-04-30T23:22:23.195Z,44.60
2019-04-30T23:24:56.555Z,46.90
2019-04-30T23:27:30.601Z,49.07
2019-04-30T23:30:03.375Z,48.00
2019-04-30T23:32:34.541Z,52.03
2019-04-30T23:35:09.103Z,49.17
2019-04-30T23:37:42.407Z,49.43
2019-04-30T23:40:31.870Z,51.80
2019-04-30T23:43:03.818Z,54.60
2019-04-30T23:45:38.468Z,52.20
2019-04-30T23:48:09.183Z,49.17
2019-04-30T23:50:39.850Z,51.60
2019-04-30T23:53:14.074Z,49.10
2019-04-30T23:55:45.359Z,49.37
2019-04-30T23:58:17.607Z,48.87
